sensor_id;sensor_type;location;lat;lon;timestamp;P1;durP1;ratioP1;P2;durP2;ratioP2
34900;SDS011;21112;51.976;5.660;2022-11-15T00:00:52;16.80;;;5.78;;
34900;SDS011;21112;51.976;5.660;2022-11-15T00:03:20;14.88;;;6.07;;
34900;SDS011;21112;51.976;5.660;2022-11-15T00:05:47;14.27;;;5.57;;
34900;SDS011;21112;51.976;5.660;2022-11-15T00:08:14;16.02;;;6.35;;
34900;SDS011;21112;51.976;5.660;2022-11-15T00:10:42;15.02;;;6.30;;
34900;SDS011;21112;51.976;5.660;2022-11-15T00:13:09;14.40;;;5.80;;
34900;SDS011;21112;51.976;5.660;2022-11-15T00:15:36;15.48;;;6.15;;
34900;SDS011;21112;51.976;5.660;2022-11-15T00:18:03;15.45;;;6.07;;
34900;SDS011;21112;51.976;5.660;2022-11-15T00:20:30;18.67;;;5.68;;
34900;SDS011;21112;51.976;5.660;2022-11-15T00:22:56;14.90;;;6.05;;
34900;SDS011;21112;51.976;5.660;2022-11-15T00:25:23;17.50;;;6.68;;
34900;SDS011;21112;51.976;5.660;2022-11-15T00:27:51;14.13;;;5.85;;
34900;SDS011;21112;51.976;5.660;2022-11-15T00:30:21;13.80;;;5.78;;
34900;SDS011;21112;51.976;5.660;2022-11-15T00:32:47;14.35;;;5.93;;
34900;SDS011;21112;51.976;5.660;2022-11-15T00:35:14;16.25;;;6.47;;
34900;SDS011;21112;51.976;5.660;2022-11-15T00:37:41;17.15;;;6.25;;
34900;SDS011;21112;51.976;5.660;2022-11-15T00:40:08;15.88;;;6.32;;
34900;SDS011;21112;51.976;5.660;2022-11-15T00:42:35;15.35;;;5.80;;
34900;SDS011;21112;51.976;5.660;2022-11-15T00:45:03;16.63;;;6.38;;
34900;SDS011;21112;51.976;5.660;2022-11-15T00:47:30;16.88;;;5.72;;
34900;SDS011;21112;51.976;5.660;2022-11-15T00:49:57;16.40;;;6.10;;
34900;SDS011;21112;51.976;5.660;2022-11-15T00:52:23;18.55;;;6.38;;
34900;SDS011;21112;51.976;5.660;2022-11-15T00:54:52;17.45;;;6.13;;
34900;SDS011;21112;51.976;5.660;2022-11-15T00:57:19;15.02;;;6.32;;
34900;SDS011;21112;51.976;5.660;2022-11-15T00:59:46;20.73;;;6.13;;
34900;SDS011;21112;51.976;5.660;2022-11-15T01:02:13;18.02;;;6.30;;
34900;SDS011;21112;51.976;5.660;2022-11-15T01:04:40;13.98;;;5.63;;
34900;SDS011;21112;51.976;5.660;2022-11-15T01:07:08;15.45;;;6.25;;
34900;SDS011;21112;51.976;5.660;2022-11-15T01:09:34;16.80;;;6.13;;
34900;SDS011;21112;51.976;5.660;2022-11-15T01:12:01;14.18;;;5.60;;
34900;SDS011;21112;51.976;5.660;2022-11-15T01:14:28;14.50;;;6.05;;
34900;SDS011;21112;51.976;5.660;2022-11-15T01:16:55;14.25;;;6.43;;
34900;SDS011;21112;51.976;5.660;2022-11-15T01:19:26;17.40;;;6.60;;
34900;SDS011;21112;51.976;5.660;2022-11-15T01:27:02;14.02;;;5.47;;
34900;SDS011;21112;51.976;5.660;2022-11-15T01:29:28;14.30;;;5.72;;
34900;SDS011;21112;51.976;5.660;2022-11-15T01:31:55;13.25;;;5.70;;
34900;SDS011;21112;51.976;5.660;2022-11-15T01:34:22;14.40;;;5.88;;
34900;SDS011;21112;51.976;5.660;2022-11-15T01:36:49;14.63;;;6.20;;
34900;SDS011;21112;51.976;5.660;2022-11-15T01:39:16;17.73;;;6.90;;
34900;SDS011;21112;51.976;5.660;2022-11-15T01:41:43;14.70;;;5.82;;
34900;SDS011;21112;51.976;5.660;2022-11-15T01:46:57;14.43;;;5.45;;
34900;SDS011;21112;51.976;5.660;2022-11-15T01:49:23;14.82;;;6.15;;
34900;SDS011;21112;51.976;5.660;2022-11-15T01:51:51;13.45;;;5.65;;
34900;SDS011;21112;51.976;5.660;2022-11-15T01:54:18;15.23;;;5.80;;
34900;SDS011;21112;51.976;5.660;2022-11-15T01:56:47;13.52;;;6.13;;
34900;SDS011;21112;51.976;5.660;2022-11-15T01:59:17;15.80;;;6.13;;
34900;SDS011;21112;51.976;5.660;2022-11-15T02:01:44;14.45;;;6.03;;
34900;SDS011;21112;51.976;5.660;2022-11-15T02:04:13;15.00;;;5.97;;
34900;SDS011;21112;51.976;5.660;2022-11-15T02:06:42;15.07;;;5.63;;
34900;SDS011;21112;51.976;5.660;2022-11-15T02:09:09;15.02;;;6.18;;
34900;SDS011;21112;51.976;5.660;2022-11-15T02:11:36;15.63;;;6.05;;
34900;SDS011;21112;51.976;5.660;2022-11-15T02:14:03;15.77;;;5.97;;
34900;SDS011;21112;51.976;5.660;2022-11-15T02:16:33;10.83;;;5.30;;
34900;SDS011;21112;51.976;5.660;2022-11-15T02:19:03;14.50;;;5.88;;
34900;SDS011;21112;51.976;5.660;2022-11-15T02:21:35;13.23;;;5.18;;
34900;SDS011;21112;51.976;5.660;2022-11-15T02:24:17;13.43;;;5.20;;
34900;SDS011;21112;51.976;5.660;2022-11-15T02:27:06;12.40;;;5.07;;
34900;SDS011;21112;51.976;5.660;2022-11-15T02:29:42;12.45;;;5.30;;
34900;SDS011;21112;51.976;5.660;2022-11-15T02:32:17;13.23;;;5.57;;
34900;SDS011;21112;51.976;5.660;2022-11-15T02:34:47;10.60;;;4.85;;
34900;SDS011;21112;51.976;5.660;2022-11-15T02:37:18;14.15;;;5.75;;
34900;SDS011;21112;51.976;5.660;2022-11-15T02:39:49;11.85;;;5.35;;
34900;SDS011;21112;51.976;5.660;2022-11-15T02:42:18;13.20;;;5.57;;
34900;SDS011;21112;51.976;5.660;2022-11-15T02:45:00;12.10;;;5.68;;
34900;SDS011;21112;51.976;5.660;2022-11-15T02:47:31;13.43;;;5.07;;
34900;SDS011;21112;51.976;5.660;2022-11-15T02:50:02;13.80;;;5.00;;
34900;SDS011;21112;51.976;5.660;2022-11-15T02:52:30;11.63;;;4.80;;
34900;SDS011;21112;51.976;5.660;2022-11-15T02:54:58;12.60;;;5.93;;
34900;SDS011;21112;51.976;5.660;2022-11-15T02:57:28;12.02;;;4.88;;
34900;SDS011;21112;51.976;5.660;2022-11-15T03:00:01;11.65;;;5.00;;
34900;SDS011;21112;51.976;5.660;2022-11-15T03:02:39;13.60;;;5.53;;
34900;SDS011;21112;51.976;5.660;2022-11-15T03:05:09;12.55;;;5.70;;
34900;SDS011;21112;51.976;5.660;2022-11-15T03:07:39;14.50;;;5.55;;
34900;SDS011;21112;51.976;5.660;2022-11-15T03:10:10;16.02;;;5.32;;
34900;SDS011;21112;51.976;5.660;2022-11-15T03:12:40;12.88;;;5.47;;
34900;SDS011;21112;51.976;5.660;2022-11-15T03:15:09;14.90;;;6.03;;
34900;SDS011;21112;51.976;5.660;2022-11-15T03:17:40;12.10;;;5.10;;
34900;SDS011;21112;51.976;5.660;2022-11-15T03:20:08;9.98;;;4.85;;
34900;SDS011;21112;51.976;5.660;2022-11-15T03:22:37;13.27;;;5.75;;
34900;SDS011;21112;51.976;5.660;2022-11-15T03:25:05;14.50;;;5.17;;
34900;SDS011;21112;51.976;5.660;2022-11-15T03:27:34;10.27;;;5.18;;
34900;SDS011;21112;51.976;5.660;2022-11-15T03:30:02;11.80;;;5.15;;
34900;SDS011;21112;51.976;5.660;2022-11-15T03:32:31;11.95;;;5.32;;
34900;SDS011;21112;51.976;5.660;2022-11-15T03:35:04;10.85;;;4.70;;
34900;SDS011;21112;51.976;5.660;2022-11-15T03:37:33;13.68;;;5.18;;
34900;SDS011;21112;51.976;5.660;2022-11-15T03:40:01;11.10;;;4.97;;
34900;SDS011;21112;51.976;5.660;2022-11-15T03:42:30;12.52;;;4.88;;
34900;SDS011;21112;51.976;5.660;2022-11-15T03:44:58;11.35;;;5.00;;
34900;SDS011;21112;51.976;5.660;2022-11-15T03:47:27;12.63;;;5.30;;
34900;SDS011;21112;51.976;5.660;2022-11-15T03:49:56;13.38;;;4.85;;
34900;SDS011;21112;51.976;5.660;2022-11-15T03:52:25;11.95;;;5.25;;
34900;SDS011;21112;51.976;5.660;2022-11-15T03:54:53;10.82;;;4.90;;
34900;SDS011;21112;51.976;5.660;2022-11-15T03:57:20;12.33;;;5.37;;
34900;SDS011;21112;51.976;5.660;2022-11-15T03:59:47;11.90;;;4.68;;
34900;SDS011;21112;51.976;5.660;2022-11-15T04:02:13;13.10;;;5.88;;
34900;SDS011;21112;51.976;5.660;2022-11-15T04:04:40;10.52;;;4.82;;
34900;SDS011;21112;51.976;5.660;2022-11-15T04:07:07;11.20;;;5.55;;
34900;SDS011;21112;51.976;5.660;2022-11-15T04:09:35;13.93;;;5.40;;
34900;SDS011;21112;51.976;5.660;2022-11-15T04:12:23;13.48;;;5.55;;
34900;SDS011;21112;51.976;5.660;2022-11-15T04:14:56;12.35;;;5.20;;
34900;SDS011;21112;51.976;5.660;2022-11-15T04:17:33;12.95;;;5.25;;
34900;SDS011;21112;51.976;5.660;2022-11-15T04:20:00;13.57;;;5.43;;
34900;SDS011;21112;51.976;5.660;2022-11-15T04:22:44;12.63;;;5.15;;
34900;SDS011;21112;51.976;5.660;2022-11-15T04:25:29;12.27;;;5.68;;
34900;SDS011;21112;51.976;5.660;2022-11-15T04:30:23;8.57;;;4.38;;
34900;SDS011;21112;51.976;5.660;2022-11-15T04:32:49;11.90;;;4.68;;
34900;SDS011;21112;51.976;5.660;2022-11-15T04:35:16;16.38;;;5.72;;
34900;SDS011;21112;51.976;5.660;2022-11-15T04:37:43;13.23;;;5.22;;
34900;SDS011;21112;51.976;5.660;2022-11-15T04:40:09;13.23;;;5.10;;
34900;SDS011;21112;51.976;5.660;2022-11-15T04:42:37;12.25;;;5.13;;
34900;SDS011;21112;51.976;5.660;2022-11-15T04:45:08;10.05;;;4.95;;
34900;SDS011;21112;51.976;5.660;2022-11-15T04:47:35;13.82;;;5.72;;
34900;SDS011;21112;51.976;5.660;2022-11-15T04:50:01;12.52;;;5.20;;
34900;SDS011;21112;51.976;5.660;2022-11-15T04:52:28;10.80;;;5.50;;
34900;SDS011;21112;51.976;5.660;2022-11-15T04:54:55;11.40;;;5.53;;
34900;SDS011;21112;51.976;5.660;2022-11-15T04:57:22;12.65;;;5.30;;
34900;SDS011;21112;51.976;5.660;2022-11-15T04:59:50;10.80;;;5.45;;
34900;SDS011;21112;51.976;5.660;2022-11-15T05:02:16;11.80;;;4.83;;
34900;SDS011;21112;51.976;5.660;2022-11-15T05:04:43;13.50;;;6.07;;
34900;SDS011;21112;51.976;5.660;2022-11-15T05:07:08;12.48;;;5.30;;
34900;SDS011;21112;51.976;5.660;2022-11-15T05:09:35;12.52;;;5.68;;
34900;SDS011;21112;51.976;5.660;2022-11-15T05:12:02;12.23;;;4.70;;
34900;SDS011;21112;51.976;5.660;2022-11-15T05:14:28;12.25;;;5.45;;
34900;SDS011;21112;51.976;5.660;2022-11-15T05:16:57;12.15;;;5.10;;
34900;SDS011;21112;51.976;5.660;2022-11-15T05:19:23;11.75;;;5.28;;
34900;SDS011;21112;51.976;5.660;2022-11-15T05:21:50;16.05;;;5.38;;
34900;SDS011;21112;51.976;5.660;2022-11-15T05:24:16;11.60;;;5.45;;
34900;SDS011;21112;51.976;5.660;2022-11-15T05:26:43;11.05;;;4.70;;
34900;SDS011;21112;51.976;5.660;2022-11-15T05:29:10;13.73;;;5.90;;
34900;SDS011;21112;51.976;5.660;2022-11-15T05:31:38;12.68;;;5.47;;
34900;SDS011;21112;51.976;5.660;2022-11-15T05:34:07;11.57;;;5.00;;
34900;SDS011;21112;51.976;5.660;2022-11-15T05:36:34;9.27;;;4.63;;
34900;SDS011;21112;51.976;5.660;2022-11-15T05:39:02;13.63;;;4.88;;
34900;SDS011;21112;51.976;5.660;2022-11-15T05:41:30;11.32;;;5.38;;
34900;SDS011;21112;51.976;5.660;2022-11-15T05:43:59;11.70;;;4.97;;
34900;SDS011;21112;51.976;5.660;2022-11-15T05:46:27;14.45;;;5.47;;
34900;SDS011;21112;51.976;5.660;2022-11-15T05:48:54;11.30;;;4.93;;
34900;SDS011;21112;51.976;5.660;2022-11-15T05:51:23;12.35;;;5.22;;
34900;SDS011;21112;51.976;5.660;2022-11-15T05:56:16;10.98;;;4.90;;
34900;SDS011;21112;51.976;5.660;2022-11-15T05:58:49;11.70;;;5.35;;
34900;SDS011;21112;51.976;5.660;2022-11-15T06:01:16;14.40;;;5.32;;
34900;SDS011;21112;51.976;5.660;2022-11-15T06:03:44;12.57;;;5.40;;
34900;SDS011;21112;51.976;5.660;2022-11-15T06:06:11;11.73;;;5.05;;
34900;SDS011;21112;51.976;5.660;2022-11-15T06:08:48;11.90;;;5.40;;
34900;SDS011;21112;51.976;5.660;2022-11-15T06:11:15;13.40;;;5.40;;
34900;SDS011;21112;51.976;5.660;2022-11-15T06:13:42;13.80;;;5.80;;
34900;SDS011;21112;51.976;5.660;2022-11-15T06:16:08;12.23;;;5.68;;
34900;SDS011;21112;51.976;5.660;2022-11-15T06:18:35;12.30;;;5.50;;
34900;SDS011;21112;51.976;5.660;2022-11-15T06:21:05;11.50;;;5.22;;
34900;SDS011;21112;51.976;5.660;2022-11-15T06:23:32;13.77;;;5.57;;
34900;SDS011;21112;51.976;5.660;2022-11-15T06:26:01;12.27;;;6.07;;
34900;SDS011;21112;51.976;5.660;2022-11-15T06:28:29;13.18;;;5.78;;
34900;SDS011;21112;51.976;5.660;2022-11-15T06:30:56;11.70;;;5.25;;
34900;SDS011;21112;51.976;5.660;2022-11-15T06:33:27;10.90;;;5.32;;
34900;SDS011;21112;51.976;5.660;2022-11-15T06:35:54;11.93;;;5.30;;
34900;SDS011;21112;51.976;5.660;2022-11-15T06:38:21;10.40;;;5.28;;
34900;SDS011;21112;51.976;5.660;2022-11-15T06:40:52;12.93;;;5.30;;
34900;SDS011;21112;51.976;5.660;2022-11-15T06:43:21;14.48;;;5.30;;
34900;SDS011;21112;51.976;5.660;2022-11-15T06:45:48;13.55;;;5.85;;
34900;SDS011;21112;51.976;5.660;2022-11-15T06:55:59;12.73;;;5.75;;
34900;SDS011;21112;51.976;5.660;2022-11-15T06:58:26;14.65;;;6.10;;
34900;SDS011;21112;51.976;5.660;2022-11-15T07:00:53;11.55;;;5.43;;
34900;SDS011;21112;51.976;5.660;2022-11-15T07:03:20;10.68;;;4.82;;
34900;SDS011;21112;51.976;5.660;2022-11-15T07:05:50;16.60;;;5.38;;
34900;SDS011;21112;51.976;5.660;2022-11-15T07:08:18;15.63;;;5.75;;
34900;SDS011;21112;51.976;5.660;2022-11-15T07:20:47;10.95;;;5.05;;
34900;SDS011;21112;51.976;5.660;2022-11-15T07:23:14;11.27;;;5.28;;
34900;SDS011;21112;51.976;5.660;2022-11-15T07:25:41;12.40;;;5.70;;
34900;SDS011;21112;51.976;5.660;2022-11-15T07:28:08;11.68;;;5.32;;
34900;SDS011;21112;51.976;5.660;2022-11-15T07:30:35;11.57;;;5.05;;
34900;SDS011;21112;51.976;5.660;2022-11-15T07:33:04;10.30;;;4.72;;
34900;SDS011;21112;51.976;5.660;2022-11-15T07:35:31;9.57;;;4.88;;
34900;SDS011;21112;51.976;5.660;2022-11-15T07:43:10;11.20;;;4.78;;
34900;SDS011;21112;51.976;5.660;2022-11-15T07:45:39;12.32;;;5.40;;
34900;SDS011;21112;51.976;5.660;2022-11-15T07:48:06;13.80;;;5.03;;
34900;SDS011;21112;51.976;5.660;2022-11-15T07:50:34;12.05;;;4.78;;
34900;SDS011;21112;51.976;5.660;2022-11-15T07:58:12;12.30;;;5.07;;
34900;SDS011;21112;51.976;5.660;2022-11-15T08:00:39;10.68;;;4.88;;
34900;SDS011;21112;51.976;5.660;2022-11-15T08:03:07;10.85;;;4.95;;
34900;SDS011;21112;51.976;5.660;2022-11-15T08:13:05;10.25;;;4.72;;
34900;SDS011;21112;51.976;5.660;2022-11-15T08:15:32;9.82;;;4.85;;
34900;SDS011;21112;51.976;5.660;2022-11-15T08:18:00;11.35;;;5.05;;
34900;SDS011;21112;51.976;5.660;2022-11-15T08:25:44;9.43;;;4.85;;
34900;SDS011;21112;51.976;5.660;2022-11-15T08:28:15;10.82;;;4.85;;
34900;SDS011;21112;51.976;5.660;2022-11-15T08:38:25;12.52;;;5.38;;
34900;SDS011;21112;51.976;5.660;2022-11-15T08:40:59;12.20;;;5.55;;
34900;SDS011;21112;51.976;5.660;2022-11-15T08:48:44;11.60;;;5.15;;
34900;SDS011;21112;51.976;5.660;2022-11-15T08:51:11;11.63;;;5.03;;
34900;SDS011;21112;51.976;5.660;2022-11-15T08:58:53;12.00;;;5.45;;
34900;SDS011;21112;51.976;5.660;2022-11-15T09:01:20;13.05;;;5.90;;
34900;SDS011;21112;51.976;5.660;2022-11-15T09:03:47;11.15;;;5.55;;
34900;SDS011;21112;51.976;5.660;2022-11-15T09:11:31;11.48;;;5.13;;
34900;SDS011;21112;51.976;5.660;2022-11-15T09:13:58;11.27;;;5.30;;
34900;SDS011;21112;51.976;5.660;2022-11-15T09:16:28;9.90;;;5.32;;
34900;SDS011;21112;51.976;5.660;2022-11-15T09:24:19;9.20;;;4.68;;
34900;SDS011;21112;51.976;5.660;2022-11-15T09:32:01;11.05;;;4.78;;
34900;SDS011;21112;51.976;5.660;2022-11-15T09:34:31;10.63;;;4.68;;
34900;SDS011;21112;51.976;5.660;2022-11-15T09:42:21;11.80;;;4.95;;
34900;SDS011;21112;51.976;5.660;2022-11-15T09:44:54;10.88;;;5.03;;
34900;SDS011;21112;51.976;5.660;2022-11-15T09:52:32;8.73;;;4.60;;
34900;SDS011;21112;51.976;5.660;2022-11-15T09:55:00;9.80;;;3.95;;
34900;SDS011;21112;51.976;5.660;2022-11-15T09:57:30;10.02;;;4.18;;
34900;SDS011;21112;51.976;5.660;2022-11-15T10:00:08;8.40;;;4.47;;
34900;SDS011;21112;51.976;5.660;2022-11-15T10:07:46;9.43;;;3.93;;
34900;SDS011;21112;51.976;5.660;2022-11-15T10:10:15;9.07;;;4.05;;
34900;SDS011;21112;51.976;5.660;2022-11-15T10:12:46;9.13;;;4.00;;
34900;SDS011;21112;51.976;5.660;2022-11-15T10:15:23;10.15;;;4.97;;
34900;SDS011;21112;51.976;5.660;2022-11-15T10:23:00;10.15;;;4.10;;
34900;SDS011;21112;51.976;5.660;2022-11-15T10:25:27;9.95;;;4.20;;
34900;SDS011;21112;51.976;5.660;2022-11-15T10:27:55;7.72;;;3.33;;
34900;SDS011;21112;51.976;5.660;2022-11-15T10:30:28;8.45;;;3.53;;
34900;SDS011;21112;51.976;5.660;2022-11-15T10:33:00;8.73;;;3.63;;
34900;SDS011;21112;51.976;5.660;2022-11-15T10:35:38;11.15;;;4.15;;
34900;SDS011;21112;51.976;5.660;2022-11-15T10:38:07;10.02;;;4.13;;
34900;SDS011;21112;51.976;5.660;2022-11-15T10:45:47;7.90;;;3.38;;
34900;SDS011;21112;51.976;5.660;2022-11-15T10:48:29;6.40;;;2.88;;
34900;SDS011;21112;51.976;5.660;2022-11-15T10:56:12;6.53;;;2.95;;
34900;SDS011;21112;51.976;5.660;2022-11-15T10:58:41;9.40;;;3.20;;
34900;SDS011;21112;51.976;5.660;2022-11-15T11:06:28;6.30;;;2.72;;
34900;SDS011;21112;51.976;5.660;2022-11-15T11:08:57;5.68;;;2.42;;
34900;SDS011;21112;51.976;5.660;2022-11-15T11:16:35;6.55;;;2.78;;
34900;SDS011;21112;51.976;5.660;2022-11-15T11:19:10;5.70;;;2.60;;
34900;SDS011;21112;51.976;5.660;2022-11-15T11:29:20;4.88;;;2.47;;
34900;SDS011;21112;51.976;5.660;2022-11-15T11:31:49;6.97;;;2.53;;
34900;SDS011;21112;51.976;5.660;2022-11-15T11:34:20;7.25;;;2.42;;
34900;SDS011;21112;51.976;5.660;2022-11-15T11:36:54;6.22;;;2.55;;
34900;SDS011;21112;51.976;5.660;2022-11-15T11:44:57;5.90;;;1.80;;
34900;SDS011;21112;51.976;5.660;2022-11-15T11:47:28;3.53;;;1.67;;
34900;SDS011;21112;51.976;5.660;2022-11-15T11:49:59;4.45;;;2.10;;
34900;SDS011;21112;51.976;5.660;2022-11-15T11:52:39;9.98;;;2.08;;
34900;SDS011;21112;51.976;5.660;2022-11-15T11:57:34;3.88;;;1.77;;
34900;SDS011;21112;51.976;5.660;2022-11-15T12:00:14;5.32;;;1.77;;
34900;SDS011;21112;51.976;5.660;2022-11-15T12:10:20;5.32;;;1.50;;
34900;SDS011;21112;51.976;5.660;2022-11-15T12:12:55;7.25;;;1.92;;
34900;SDS011;21112;51.976;5.660;2022-11-15T12:15:24;4.13;;;1.67;;
34900;SDS011;21112;51.976;5.660;2022-11-15T12:17:52;4.10;;;1.73;;
34900;SDS011;21112;51.976;5.660;2022-11-15T12:20:21;4.65;;;1.45;;
34900;SDS011;21112;51.976;5.660;2022-11-15T12:22:53;4.50;;;1.67;;
34900;SDS011;21112;51.976;5.660;2022-11-15T12:25:23;4.22;;;1.83;;
34900;SDS011;21112;51.976;5.660;2022-11-15T12:27:51;5.40;;;1.65;;
34900;SDS011;21112;51.976;5.660;2022-11-15T12:30:21;3.72;;;1.67;;
34900;SDS011;21112;51.976;5.660;2022-11-15T12:32:51;4.22;;;1.48;;
34900;SDS011;21112;51.976;5.660;2022-11-15T12:35:21;3.47;;;1.25;;
34900;SDS011;21112;51.976;5.660;2022-11-15T12:37:49;3.78;;;1.40;;
34900;SDS011;21112;51.976;5.660;2022-11-15T12:40:18;4.68;;;1.70;;
34900;SDS011;21112;51.976;5.660;2022-11-15T12:48:21;4.13;;;1.20;;
34900;SDS011;21112;51.976;5.660;2022-11-15T12:50:55;3.58;;;1.50;;
34900;SDS011;21112;51.976;5.660;2022-11-15T12:53:26;3.97;;;1.55;;
34900;SDS011;21112;51.976;5.660;2022-11-15T12:56:08;3.90;;;1.50;;
34900;SDS011;21112;51.976;5.660;2022-11-15T12:58:41;9.40;;;1.30;;
34900;SDS011;21112;51.976;5.660;2022-11-15T13:01:08;2.38;;;1.17;;
34900;SDS011;21112;51.976;5.660;2022-11-15T13:06:39;2.95;;;1.30;;
34900;SDS011;21112;51.976;5.660;2022-11-15T13:11:50;3.78;;;1.27;;
34900;SDS011;21112;51.976;5.660;2022-11-15T13:24:59;3.13;;;1.00;;
34900;SDS011;21112;51.976;5.660;2022-11-15T13:27:40;1.90;;;1.25;;
34900;SDS011;21112;51.976;5.660;2022-11-15T13:35:46;1.95;;;1.00;;
34900;SDS011;21112;51.976;5.660;2022-11-15T13:38:17;3.95;;;0.80;;
34900;SDS011;21112;51.976;5.660;2022-11-15T13:40:46;2.25;;;1.00;;
34900;SDS011;21112;51.976;5.660;2022-11-15T13:48:24;2.35;;;1.00;;
34900;SDS011;21112;51.976;5.660;2022-11-15T13:50:53;3.50;;;1.30;;
34900;SDS011;21112;51.976;5.660;2022-11-15T13:53:21;6.13;;;1.17;;
34900;SDS011;21112;51.976;5.660;2022-11-15T13:55:48;3.28;;;0.80;;
34900;SDS011;21112;51.976;5.660;2022-11-15T13:58:17;2.13;;;1.02;;
34900;SDS011;21112;51.976;5.660;2022-11-15T14:33:30;1.70;;;0.82;;
34900;SDS011;21112;51.976;5.660;2022-11-15T14:36:04;2.75;;;0.70;;
34900;SDS011;21112;51.976;5.660;2022-11-15T14:38:47;1.63;;;0.88;;
34900;SDS011;21112;51.976;5.660;2022-11-15T14:41:20;2.85;;;0.85;;
34900;SDS011;21112;51.976;5.660;2022-11-15T14:49:05;3.63;;;0.90;;
34900;SDS011;21112;51.976;5.660;2022-11-15T14:51:36;3.80;;;0.85;;
34900;SDS011;21112;51.976;5.660;2022-11-15T15:04:42;4.00;;;0.90;;
34900;SDS011;21112;51.976;5.660;2022-11-15T15:09:36;2.35;;;0.90;;
34900;SDS011;21112;51.976;5.660;2022-11-15T15:12:03;3.75;;;0.70;;
34900;SDS011;21112;51.976;5.660;2022-11-15T15:14:32;3.10;;;0.90;;
34900;SDS011;21112;51.976;5.660;2022-11-15T15:17:01;3.63;;;0.95;;
34900;SDS011;21112;51.976;5.660;2022-11-15T15:19:29;1.38;;;0.70;;
34900;SDS011;21112;51.976;5.660;2022-11-15T15:21:58;1.60;;;0.70;;
34900;SDS011;21112;51.976;5.660;2022-11-15T15:26:53;3.13;;;0.80;;
34900;SDS011;21112;51.976;5.660;2022-11-15T15:29:21;1.75;;;0.82;;
34900;SDS011;21112;51.976;5.660;2022-11-15T15:31:58;4.10;;;0.80;;
34900;SDS011;21112;51.976;5.660;2022-11-15T15:34:26;2.53;;;0.98;;
34900;SDS011;21112;51.976;5.660;2022-11-15T15:37:07;1.02;;;0.75;;
34900;SDS011;21112;51.976;5.660;2022-11-15T15:39:34;1.90;;;0.88;;
34900;SDS011;21112;51.976;5.660;2022-11-15T15:42:01;2.05;;;0.82;;
34900;SDS011;21112;51.976;5.660;2022-11-15T15:44:29;3.87;;;1.10;;
34900;SDS011;21112;51.976;5.660;2022-11-15T15:46:57;1.73;;;0.98;;
34900;SDS011;21112;51.976;5.660;2022-11-15T15:49:24;1.52;;;0.90;;
34900;SDS011;21112;51.976;5.660;2022-11-15T15:51:50;1.70;;;0.93;;
34900;SDS011;21112;51.976;5.660;2022-11-15T15:54:19;4.28;;;1.15;;
34900;SDS011;21112;51.976;5.660;2022-11-15T15:56:45;2.45;;;0.77;;
34900;SDS011;21112;51.976;5.660;2022-11-15T15:59:12;1.67;;;0.90;;
34900;SDS011;21112;51.976;5.660;2022-11-15T16:01:39;1.63;;;0.75;;
34900;SDS011;21112;51.976;5.660;2022-11-15T16:04:06;3.78;;;0.80;;
34900;SDS011;21112;51.976;5.660;2022-11-15T16:06:34;3.63;;;1.00;;
34900;SDS011;21112;51.976;5.660;2022-11-15T16:09:08;3.40;;;1.00;;
34900;SDS011;21112;51.976;5.660;2022-11-15T16:11:40;2.55;;;0.90;;
34900;SDS011;21112;51.976;5.660;2022-11-15T16:14:07;5.05;;;1.00;;
34900;SDS011;21112;51.976;5.660;2022-11-15T16:16:34;2.75;;;1.13;;
34900;SDS011;21112;51.976;5.660;2022-11-15T16:19:01;3.15;;;0.90;;
34900;SDS011;21112;51.976;5.660;2022-11-15T16:21:27;3.40;;;0.95;;
34900;SDS011;21112;51.976;5.660;2022-11-15T16:23:54;2.88;;;1.02;;
34900;SDS011;21112;51.976;5.660;2022-11-15T16:26:21;1.63;;;0.75;;
34900;SDS011;21112;51.976;5.660;2022-11-15T16:28:51;5.07;;;0.88;;
34900;SDS011;21112;51.976;5.660;2022-11-15T16:33:47;2.72;;;1.02;;
34900;SDS011;21112;51.976;5.660;2022-11-15T16:36:18;3.00;;;0.93;;
34900;SDS011;21112;51.976;5.660;2022-11-15T16:38:45;3.80;;;1.00;;
34900;SDS011;21112;51.976;5.660;2022-11-15T16:41:12;4.28;;;1.10;;
34900;SDS011;21112;51.976;5.660;2022-11-15T16:43:39;4.13;;;0.95;;
34900;SDS011;21112;51.976;5.660;2022-11-15T16:46:08;4.47;;;1.17;;
34900;SDS011;21112;51.976;5.660;2022-11-15T16:48:38;4.28;;;1.10;;
34900;SDS011;21112;51.976;5.660;2022-11-15T16:51:05;2.65;;;1.10;;
34900;SDS011;21112;51.976;5.660;2022-11-15T16:53:33;1.77;;;1.00;;
34900;SDS011;21112;51.976;5.660;2022-11-15T16:55:59;3.00;;;1.30;;
34900;SDS011;21112;51.976;5.660;2022-11-15T16:58:26;3.58;;;1.10;;
34900;SDS011;21112;51.976;5.660;2022-11-15T17:00:54;3.10;;;1.20;;
34900;SDS011;21112;51.976;5.660;2022-11-15T17:03:33;1.80;;;1.10;;
34900;SDS011;21112;51.976;5.660;2022-11-15T17:06:00;1.85;;;0.98;;
34900;SDS011;21112;51.976;5.660;2022-11-15T17:08:27;3.10;;;1.17;;
34900;SDS011;21112;51.976;5.660;2022-11-15T17:10:54;2.58;;;0.90;;
34900;SDS011;21112;51.976;5.660;2022-11-15T17:13:20;1.95;;;1.00;;
34900;SDS011;21112;51.976;5.660;2022-11-15T17:15:47;6.38;;;1.23;;
34900;SDS011;21112;51.976;5.660;2022-11-15T17:18:14;4.82;;;1.10;;
34900;SDS011;21112;51.976;5.660;2022-11-15T17:20:42;2.33;;;1.15;;
34900;SDS011;21112;51.976;5.660;2022-11-15T17:23:10;3.90;;;1.23;;
34900;SDS011;21112;51.976;5.660;2022-11-15T17:25:38;3.55;;;1.60;;
34900;SDS011;21112;51.976;5.660;2022-11-15T17:28:05;2.40;;;1.08;;
34900;SDS011;21112;51.976;5.660;2022-11-15T17:30:32;3.88;;;1.27;;
34900;SDS011;21112;51.976;5.660;2022-11-15T17:32:59;4.18;;;1.23;;
34900;SDS011;21112;51.976;5.660;2022-11-15T17:35:26;4.75;;;1.15;;
34900;SDS011;21112;51.976;5.660;2022-11-15T17:37:54;2.08;;;1.13;;
34900;SDS011;21112;51.976;5.660;2022-11-15T17:40:21;3.55;;;1.65;;
34900;SDS011;21112;51.976;5.660;2022-11-15T17:42:50;2.45;;;1.20;;
34900;SDS011;21112;51.976;5.660;2022-11-15T17:45:17;4.72;;;1.40;;
34900;SDS011;21112;51.976;5.660;2022-11-15T17:47:44;4.28;;;1.50;;
34900;SDS011;21112;51.976;5.660;2022-11-15T17:50:10;5.22;;;1.35;;
34900;SDS011;21112;51.976;5.660;2022-11-15T17:52:37;5.72;;;1.83;;
34900;SDS011;21112;51.976;5.660;2022-11-15T17:55:06;4.50;;;1.27;;
34900;SDS011;21112;51.976;5.660;2022-11-15T17:57:33;4.65;;;1.45;;
34900;SDS011;21112;51.976;5.660;2022-11-15T18:00:00;8.35;;;1.58;;
34900;SDS011;21112;51.976;5.660;2022-11-15T18:02:26;3.28;;;1.52;;
34900;SDS011;21112;51.976;5.660;2022-11-15T18:04:54;3.27;;;1.33;;
34900;SDS011;21112;51.976;5.660;2022-11-15T18:07:23;3.40;;;1.52;;
34900;SDS011;21112;51.976;5.660;2022-11-15T18:09:52;3.55;;;1.30;;
34900;SDS011;21112;51.976;5.660;2022-11-15T18:12:22;5.60;;;1.63;;
34900;SDS011;21112;51.976;5.660;2022-11-15T18:14:49;3.03;;;1.38;;
34900;SDS011;21112;51.976;5.660;2022-11-15T18:17:16;5.43;;;1.50;;
34900;SDS011;21112;51.976;5.660;2022-11-15T18:19:43;4.55;;;1.48;;
34900;SDS011;21112;51.976;5.660;2022-11-15T18:22:10;3.58;;;1.45;;
34900;SDS011;21112;51.976;5.660;2022-11-15T18:24:36;5.78;;;1.30;;
34900;SDS011;21112;51.976;5.660;2022-11-15T18:27:04;3.78;;;1.42;;
34900;SDS011;21112;51.976;5.660;2022-11-15T18:29:33;3.05;;;1.42;;
34900;SDS011;21112;51.976;5.660;2022-11-15T18:32:01;3.60;;;1.70;;
34900;SDS011;21112;51.976;5.660;2022-11-15T18:36:58;5.18;;;1.58;;
34900;SDS011;21112;51.976;5.660;2022-11-15T18:39:25;6.28;;;1.58;;
34900;SDS011;21112;51.976;5.660;2022-11-15T18:41:52;4.53;;;1.90;;
34900;SDS011;21112;51.976;5.660;2022-11-15T18:44:18;3.83;;;1.70;;
34900;SDS011;21112;51.976;5.660;2022-11-15T18:46:47;5.05;;;1.63;;
34900;SDS011;21112;51.976;5.660;2022-11-15T18:49:15;4.28;;;1.85;;
34900;SDS011;21112;51.976;5.660;2022-11-15T18:54:10;5.28;;;1.70;;
34900;SDS011;21112;51.976;5.660;2022-11-15T18:56:37;4.47;;;1.70;;